sensor_id;sensor_type;location;lat;lon;timestamp;P1;durP1;ratioP1;P2;durP2;ratioP2
19519;SDS011;9904;52.246;20.898;2023-05-23T00:01:50;12.67;;;4.20;;
19519;SDS011;9904;52.246;20.898;2023-05-23T00:04:20;12.43;;;3.80;;
19519;SDS011;9904;52.246;20.898;2023-05-23T00:06:47;11.73;;;4.43;;
19519;SDS011;9904;52.246;20.898;2023-05-23T00:09:15;7.93;;;3.77;;
19519;SDS011;9904;52.246;20.898;2023-05-23T00:11:42;7.77;;;4.00;;
19519;SDS011;9904;52.246;20.898;2023-05-23T00:14:13;11.17;;;4.67;;
19519;SDS011;9904;52.246;20.898;2023-05-23T00:16:40;11.50;;;4.07;;
19519;SDS011;9904;52.246;20.898;2023-05-23T00:19:09;8.20;;;3.90;;
19519;SDS011;9904;52.246;20.898;2023-05-23T00:21:36;6.33;;;3.93;;
19519;SDS011;9904;52.246;20.898;2023-05-23T00:24:03;10.13;;;4.00;;
19519;SDS011;9904;52.246;20.898;2023-05-23T00:26:30;8.33;;;3.93;;
19519;SDS011;9904;52.246;20.898;2023-05-23T00:28:57;7.43;;;4.03;;
19519;SDS011;9904;52.246;20.898;2023-05-23T00:31:24;9.27;;;3.83;;
19519;SDS011;9904;52.246;20.898;2023-05-23T00:33:50;9.93;;;4.20;;
19519;SDS011;9904;52.246;20.898;2023-05-23T00:36:17;9.03;;;4.57;;
19519;SDS011;9904;52.246;20.898;2023-05-23T00:38:44;6.20;;;3.80;;
19519;SDS011;9904;52.246;20.898;2023-05-23T00:41:14;11.50;;;4.13;;
19519;SDS011;9904;52.246;20.898;2023-05-23T00:43:41;8.83;;;4.03;;
19519;SDS011;9904;52.246;20.898;2023-05-23T00:46:08;10.13;;;3.73;;
19519;SDS011;9904;52.246;20.898;2023-05-23T00:48:36;14.80;;;4.33;;
19519;SDS011;9904;52.246;20.898;2023-05-23T00:51:03;6.23;;;3.67;;
19519;SDS011;9904;52.246;20.898;2023-05-23T00:53:30;8.77;;;3.33;;
19519;SDS011;9904;52.246;20.898;2023-05-23T00:55:57;7.33;;;3.67;;
19519;SDS011;9904;52.246;20.898;2023-05-23T00:58:23;10.00;;;4.40;;
19519;SDS011;9904;52.246;20.898;2023-05-23T01:00:50;9.13;;;4.00;;
19519;SDS011;9904;52.246;20.898;2023-05-23T01:03:19;8.07;;;3.93;;
19519;SDS011;9904;52.246;20.898;2023-05-23T01:05:46;7.20;;;3.70;;
19519;SDS011;9904;52.246;20.898;2023-05-23T01:08:13;9.83;;;4.27;;
19519;SDS011;9904;52.246;20.898;2023-05-23T01:10:41;7.87;;;3.97;;
19519;SDS011;9904;52.246;20.898;2023-05-23T01:13:16;11.83;;;4.30;;
19519;SDS011;9904;52.246;20.898;2023-05-23T01:18:36;9.53;;;4.47;;
19519;SDS011;9904;52.246;20.898;2023-05-23T01:21:14;11.00;;;5.00;;
19519;SDS011;9904;52.246;20.898;2023-05-23T01:23:51;13.00;;;4.77;;
19519;SDS011;9904;52.246;20.898;2023-05-23T01:29:38;10.30;;;4.53;;
19519;SDS011;9904;52.246;20.898;2023-05-23T01:32:09;7.93;;;4.47;;
19519;SDS011;9904;52.246;20.898;2023-05-23T01:34:37;10.27;;;4.33;;
19519;SDS011;9904;52.246;20.898;2023-05-23T01:37:08;9.00;;;4.80;;
19519;SDS011;9904;52.246;20.898;2023-05-23T01:39:36;10.77;;;4.27;;
19519;SDS011;9904;52.246;20.898;2023-05-23T01:42:03;10.30;;;4.20;;
19519;SDS011;9904;52.246;20.898;2023-05-23T01:44:30;9.47;;;4.50;;
19519;SDS011;9904;52.246;20.898;2023-05-23T01:46:57;8.53;;;4.53;;
19519;SDS011;9904;52.246;20.898;2023-05-23T01:49:23;8.83;;;4.70;;
19519;SDS011;9904;52.246;20.898;2023-05-23T01:51:50;11.93;;;4.53;;
19519;SDS011;9904;52.246;20.898;2023-05-23T01:54:17;7.80;;;4.57;;
19519;SDS011;9904;52.246;20.898;2023-05-23T01:56:45;9.57;;;4.27;;
19519;SDS011;9904;52.246;20.898;2023-05-23T01:59:13;11.77;;;5.13;;
19519;SDS011;9904;52.246;20.898;2023-05-23T02:01:39;10.30;;;4.80;;
19519;SDS011;9904;52.246;20.898;2023-05-23T02:04:06;8.77;;;4.10;;
19519;SDS011;9904;52.246;20.898;2023-05-23T02:06:33;7.80;;;4.43;;
19519;SDS011;9904;52.246;20.898;2023-05-23T02:08:59;8.87;;;4.43;;
19519;SDS011;9904;52.246;20.898;2023-05-23T02:11:26;9.13;;;4.47;;
19519;SDS011;9904;52.246;20.898;2023-05-23T02:13:53;8.87;;;4.57;;
19519;SDS011;9904;52.246;20.898;2023-05-23T02:16:19;10.67;;;4.60;;
19519;SDS011;9904;52.246;20.898;2023-05-23T02:18:46;8.40;;;4.67;;
19519;SDS011;9904;52.246;20.898;2023-05-23T02:21:14;8.77;;;4.33;;
19519;SDS011;9904;52.246;20.898;2023-05-23T02:23:41;10.00;;;4.17;;
19519;SDS011;9904;52.246;20.898;2023-05-23T02:26:07;9.57;;;4.63;;
19519;SDS011;9904;52.246;20.898;2023-05-23T02:28:33;13.47;;;4.80;;
19519;SDS011;9904;52.246;20.898;2023-05-23T02:31:01;9.53;;;3.97;;
19519;SDS011;9904;52.246;20.898;2023-05-23T02:33:27;10.17;;;4.23;;
19519;SDS011;9904;52.246;20.898;2023-05-23T02:35:54;9.70;;;4.30;;
19519;SDS011;9904;52.246;20.898;2023-05-23T02:38:20;10.53;;;4.20;;
19519;SDS011;9904;52.246;20.898;2023-05-23T02:40:47;8.13;;;4.10;;
19519;SDS011;9904;52.246;20.898;2023-05-23T02:43:15;9.60;;;4.20;;
19519;SDS011;9904;52.246;20.898;2023-05-23T02:45:42;7.67;;;4.00;;
19519;SDS011;9904;52.246;20.898;2023-05-23T02:48:09;7.87;;;3.90;;
19519;SDS011;9904;52.246;20.898;2023-05-23T02:50:37;8.73;;;4.57;;
19519;SDS011;9904;52.246;20.898;2023-05-23T02:53:04;8.00;;;3.50;;
19519;SDS011;9904;52.246;20.898;2023-05-23T02:55:30;8.77;;;4.10;;
19519;SDS011;9904;52.246;20.898;2023-05-23T02:57:57;7.90;;;4.20;;
19519;SDS011;9904;52.246;20.898;2023-05-23T03:00:24;6.87;;;3.67;;
19519;SDS011;9904;52.246;20.898;2023-05-23T03:02:50;6.53;;;3.83;;
19519;SDS011;9904;52.246;20.898;2023-05-23T03:05:17;14.17;;;3.57;;
19519;SDS011;9904;52.246;20.898;2023-05-23T03:07:44;11.30;;;3.80;;
19519;SDS011;9904;52.246;20.898;2023-05-23T03:10:11;6.50;;;3.60;;
19519;SDS011;9904;52.246;20.898;2023-05-23T03:12:37;7.63;;;4.03;;
19519;SDS011;9904;52.246;20.898;2023-05-23T03:15:04;7.90;;;3.80;;
19519;SDS011;9904;52.246;20.898;2023-05-23T03:17:31;8.60;;;4.10;;
19519;SDS011;9904;52.246;20.898;2023-05-23T03:19:58;8.93;;;3.80;;
19519;SDS011;9904;52.246;20.898;2023-05-23T03:22:24;7.27;;;3.90;;
19519;SDS011;9904;52.246;20.898;2023-05-23T03:24:51;6.30;;;3.60;;
19519;SDS011;9904;52.246;20.898;2023-05-23T03:27:18;13.00;;;3.97;;
19519;SDS011;9904;52.246;20.898;2023-05-23T03:29:44;9.13;;;4.07;;
19519;SDS011;9904;52.246;20.898;2023-05-23T03:32:13;8.93;;;4.30;;
19519;SDS011;9904;52.246;20.898;2023-05-23T03:34:40;10.10;;;3.83;;
19519;SDS011;9904;52.246;20.898;2023-05-23T03:37:06;12.03;;;4.40;;
19519;SDS011;9904;52.246;20.898;2023-05-23T03:39:33;11.47;;;4.30;;
19519;SDS011;9904;52.246;20.898;2023-05-23T03:41:59;6.67;;;3.70;;
19519;SDS011;9904;52.246;20.898;2023-05-23T03:44:26;11.53;;;4.00;;
19519;SDS011;9904;52.246;20.898;2023-05-23T03:46:53;10.53;;;4.50;;
19519;SDS011;9904;52.246;20.898;2023-05-23T03:49:19;9.50;;;4.20;;
19519;SDS011;9904;52.246;20.898;2023-05-23T03:51:46;8.63;;;4.40;;
19519;SDS011;9904;52.246;20.898;2023-05-23T03:54:12;9.43;;;4.23;;
19519;SDS011;9904;52.246;20.898;2023-05-23T03:56:39;7.03;;;3.47;;
19519;SDS011;9904;52.246;20.898;2023-05-23T03:59:06;11.53;;;4.73;;
19519;SDS011;9904;52.246;20.898;2023-05-23T04:01:32;9.63;;;4.40;;
19519;SDS011;9904;52.246;20.898;2023-05-23T04:03:59;18.43;;;4.47;;
19519;SDS011;9904;52.246;20.898;2023-05-23T04:06:26;12.03;;;4.40;;
19519;SDS011;9904;52.246;20.898;2023-05-23T04:08:55;7.83;;;3.83;;
19519;SDS011;9904;52.246;20.898;2023-05-23T04:11:22;9.77;;;4.63;;
19519;SDS011;9904;52.246;20.898;2023-05-23T04:13:49;9.47;;;4.37;;
19519;SDS011;9904;52.246;20.898;2023-05-23T04:16:17;8.50;;;3.90;;
19519;SDS011;9904;52.246;20.898;2023-05-23T04:18:43;16.67;;;4.67;;
19519;SDS011;9904;52.246;20.898;2023-05-23T04:21:12;8.37;;;4.20;;
19519;SDS011;9904;52.246;20.898;2023-05-23T04:23:39;14.93;;;4.60;;
19519;SDS011;9904;52.246;20.898;2023-05-23T04:26:05;16.97;;;4.00;;
19519;SDS011;9904;52.246;20.898;2023-05-23T04:28:33;10.67;;;4.90;;
19519;SDS011;9904;52.246;20.898;2023-05-23T04:30:59;7.97;;;4.03;;
19519;SDS011;9904;52.246;20.898;2023-05-23T04:33:28;10.17;;;4.40;;
19519;SDS011;9904;52.246;20.898;2023-05-23T04:35:55;14.00;;;4.53;;
19519;SDS011;9904;52.246;20.898;2023-05-23T04:38:22;11.47;;;4.40;;
19519;SDS011;9904;52.246;20.898;2023-05-23T04:40:50;14.17;;;4.30;;
19519;SDS011;9904;52.246;20.898;2023-05-23T04:43:17;11.37;;;4.00;;
19519;SDS011;9904;52.246;20.898;2023-05-23T04:45:46;13.83;;;4.47;;
19519;SDS011;9904;52.246;20.898;2023-05-23T04:48:15;9.83;;;4.57;;
19519;SDS011;9904;52.246;20.898;2023-05-23T04:50:42;23.17;;;5.13;;
19519;SDS011;9904;52.246;20.898;2023-05-23T04:53:09;8.43;;;4.20;;
19519;SDS011;9904;52.246;20.898;2023-05-23T04:55:36;10.13;;;4.27;;
19519;SDS011;9904;52.246;20.898;2023-05-23T04:58:02;19.37;;;4.87;;
19519;SDS011;9904;52.246;20.898;2023-05-23T05:00:29;9.10;;;3.80;;
19519;SDS011;9904;52.246;20.898;2023-05-23T05:02:56;18.03;;;5.00;;
19519;SDS011;9904;52.246;20.898;2023-05-23T05:05:22;8.33;;;3.63;;
19519;SDS011;9904;52.246;20.898;2023-05-23T05:07:49;7.37;;;3.80;;
19519;SDS011;9904;52.246;20.898;2023-05-23T05:10:15;10.23;;;4.23;;
19519;SDS011;9904;52.246;20.898;2023-05-23T05:12:45;9.00;;;3.90;;
19519;SDS011;9904;52.246;20.898;2023-05-23T05:15:15;8.80;;;4.27;;
19519;SDS011;9904;52.246;20.898;2023-05-23T05:17:45;14.77;;;4.20;;
19519;SDS011;9904;52.246;20.898;2023-05-23T05:20:15;8.70;;;4.13;;
19519;SDS011;9904;52.246;20.898;2023-05-23T05:22:42;10.37;;;3.77;;
19519;SDS011;9904;52.246;20.898;2023-05-23T05:25:09;16.10;;;4.63;;
19519;SDS011;9904;52.246;20.898;2023-05-23T05:27:36;6.80;;;3.37;;
19519;SDS011;9904;52.246;20.898;2023-05-23T05:30:06;10.60;;;4.20;;
19519;SDS011;9904;52.246;20.898;2023-05-23T05:32:34;11.47;;;3.57;;
19519;SDS011;9904;52.246;20.898;2023-05-23T05:35:01;11.53;;;3.67;;
19519;SDS011;9904;52.246;20.898;2023-05-23T05:37:29;15.73;;;4.00;;
19519;SDS011;9904;52.246;20.898;2023-05-23T05:39:55;12.83;;;4.07;;
19519;SDS011;9904;52.246;20.898;2023-05-23T05:42:22;13.33;;;4.20;;
19519;SDS011;9904;52.246;20.898;2023-05-23T05:44:49;11.07;;;3.37;;
19519;SDS011;9904;52.246;20.898;2023-05-23T05:47:15;9.97;;;4.10;;
19519;SDS011;9904;52.246;20.898;2023-05-23T05:49:42;14.10;;;4.37;;
19519;SDS011;9904;52.246;20.898;2023-05-23T05:52:11;17.17;;;3.47;;
19519;SDS011;9904;52.246;20.898;2023-05-23T05:54:38;13.80;;;3.70;;
19519;SDS011;9904;52.246;20.898;2023-05-23T05:57:04;13.20;;;3.93;;
19519;SDS011;9904;52.246;20.898;2023-05-23T05:59:31;16.13;;;3.87;;
19519;SDS011;9904;52.246;20.898;2023-05-23T06:01:58;14.63;;;3.17;;
19519;SDS011;9904;52.246;20.898;2023-05-23T06:04:24;15.10;;;3.77;;
19519;SDS011;9904;52.246;20.898;2023-05-23T06:06:51;8.90;;;3.15;;
19519;SDS011;9904;52.246;20.898;2023-05-23T06:09:18;13.02;;;3.10;;
19519;SDS011;9904;52.246;20.898;2023-05-23T06:11:45;14.88;;;3.22;;
19519;SDS011;9904;52.246;20.898;2023-05-23T06:14:12;8.48;;;3.60;;
19519;SDS011;9904;52.246;20.898;2023-05-23T06:16:39;11.97;;;3.90;;
19519;SDS011;9904;52.246;20.898;2023-05-23T06:19:06;10.00;;;3.50;;
19519;SDS011;9904;52.246;20.898;2023-05-23T06:21:33;6.47;;;3.63;;
19519;SDS011;9904;52.246;20.898;2023-05-23T06:24:00;9.00;;;2.90;;
19519;SDS011;9904;52.246;20.898;2023-05-23T06:26:27;9.48;;;3.17;;
19519;SDS011;9904;52.246;20.898;2023-05-23T06:28:53;14.80;;;3.20;;
19519;SDS011;9904;52.246;20.898;2023-05-23T06:31:20;8.60;;;3.30;;
19519;SDS011;9904;52.246;20.898;2023-05-23T06:33:47;10.75;;;3.00;;
19519;SDS011;9904;52.246;20.898;2023-05-23T06:36:13;11.15;;;2.88;;
19519;SDS011;9904;52.246;20.898;2023-05-23T06:38:40;6.13;;;3.38;;
19519;SDS011;9904;52.246;20.898;2023-05-23T06:41:07;11.52;;;3.38;;
19519;SDS011;9904;52.246;20.898;2023-05-23T06:43:33;12.37;;;3.13;;
19519;SDS011;9904;52.246;20.898;2023-05-23T06:46:00;12.87;;;3.20;;
19519;SDS011;9904;52.246;20.898;2023-05-23T06:48:27;9.80;;;2.80;;
19519;SDS011;9904;52.246;20.898;2023-05-23T06:50:53;9.57;;;3.17;;
19519;SDS011;9904;52.246;20.898;2023-05-23T06:53:20;11.35;;;3.08;;
19519;SDS011;9904;52.246;20.898;2023-05-23T06:55:47;8.68;;;2.58;;
19519;SDS011;9904;52.246;20.898;2023-05-23T06:58:13;9.00;;;2.40;;
19519;SDS011;9904;52.246;20.898;2023-05-23T07:00:40;10.35;;;3.05;;
19519;SDS011;9904;52.246;20.898;2023-05-23T07:03:07;6.95;;;2.80;;
19519;SDS011;9904;52.246;20.898;2023-05-23T07:05:34;8.35;;;2.80;;
19519;SDS011;9904;52.246;20.898;2023-05-23T07:08:06;5.05;;;2.72;;
19519;SDS011;9904;52.246;20.898;2023-05-23T07:10:32;12.00;;;2.70;;
19519;SDS011;9904;52.246;20.898;2023-05-23T07:13:00;10.13;;;2.70;;
19519;SDS011;9904;52.246;20.898;2023-05-23T07:15:27;10.75;;;3.03;;
19519;SDS011;9904;52.246;20.898;2023-05-23T07:17:54;11.48;;;3.05;;
19519;SDS011;9904;52.246;20.898;2023-05-23T07:20:21;7.65;;;2.80;;
19519;SDS011;9904;52.246;20.898;2023-05-23T07:22:47;4.82;;;2.22;;
19519;SDS011;9904;52.246;20.898;2023-05-23T07:25:16;7.75;;;2.75;;
19519;SDS011;9904;52.246;20.898;2023-05-23T07:27:42;4.07;;;2.80;;
19519;SDS011;9904;52.246;20.898;2023-05-23T07:30:09;10.07;;;2.80;;
19519;SDS011;9904;52.246;20.898;2023-05-23T07:32:36;5.45;;;2.38;;
19519;SDS011;9904;52.246;20.898;2023-05-23T07:35:03;10.30;;;2.60;;
19519;SDS011;9904;52.246;20.898;2023-05-23T07:37:30;11.97;;;2.60;;
19519;SDS011;9904;52.246;20.898;2023-05-23T07:39:57;11.63;;;2.70;;
19519;SDS011;9904;52.246;20.898;2023-05-23T07:42:23;6.88;;;2.25;;
19519;SDS011;9904;52.246;20.898;2023-05-23T07:44:50;5.97;;;2.00;;
19519;SDS011;9904;52.246;20.898;2023-05-23T07:47:16;7.27;;;2.57;;
19519;SDS011;9904;52.246;20.898;2023-05-23T07:49:43;6.50;;;2.70;;
19519;SDS011;9904;52.246;20.898;2023-05-23T07:52:10;8.57;;;2.63;;
19519;SDS011;9904;52.246;20.898;2023-05-23T07:54:36;4.60;;;2.08;;
19519;SDS011;9904;52.246;20.898;2023-05-23T07:57:03;6.13;;;2.70;;
19519;SDS011;9904;52.246;20.898;2023-05-23T07:59:32;7.10;;;2.30;;
19519;SDS011;9904;52.246;20.898;2023-05-23T08:01:59;5.85;;;2.15;;
19519;SDS011;9904;52.246;20.898;2023-05-23T08:04:25;7.17;;;2.57;;
19519;SDS011;9904;52.246;20.898;2023-05-23T08:06:52;9.67;;;2.83;;
19519;SDS011;9904;52.246;20.898;2023-05-23T08:09:30;10.45;;;2.42;;
19519;SDS011;9904;52.246;20.898;2023-05-23T08:11:57;5.70;;;2.17;;
19519;SDS011;9904;52.246;20.898;2023-05-23T08:14:25;8.03;;;3.10;;
19519;SDS011;9904;52.246;20.898;2023-05-23T08:17:07;8.43;;;2.43;;
19519;SDS011;9904;52.246;20.898;2023-05-23T08:19:34;3.20;;;2.40;;
19519;SDS011;9904;52.246;20.898;2023-05-23T08:22:01;6.93;;;2.67;;
19519;SDS011;9904;52.246;20.898;2023-05-23T08:24:29;5.67;;;2.43;;
19519;SDS011;9904;52.246;20.898;2023-05-23T08:26:57;6.97;;;2.73;;
19519;SDS011;9904;52.246;20.898;2023-05-23T08:29:23;5.73;;;2.37;;
19519;SDS011;9904;52.246;20.898;2023-05-23T08:31:50;7.73;;;2.60;;
19519;SDS011;9904;52.246;20.898;2023-05-23T08:34:16;7.83;;;2.63;;
19519;SDS011;9904;52.246;20.898;2023-05-23T08:36:43;4.77;;;2.67;;
19519;SDS011;9904;52.246;20.898;2023-05-23T08:39:10;5.33;;;2.77;;
19519;SDS011;9904;52.246;20.898;2023-05-23T08:44:48;9.63;;;2.67;;
19519;SDS011;9904;52.246;20.898;2023-05-23T08:47:16;9.23;;;2.50;;
19519;SDS011;9904;52.246;20.898;2023-05-23T08:49:45;5.20;;;2.70;;
19519;SDS011;9904;52.246;20.898;2023-05-23T08:52:11;7.87;;;2.70;;
19519;SDS011;9904;52.246;20.898;2023-05-23T08:54:39;7.30;;;2.40;;
19519;SDS011;9904;52.246;20.898;2023-05-23T08:57:07;5.87;;;2.63;;
19519;SDS011;9904;52.246;20.898;2023-05-23T08:59:34;7.57;;;2.60;;
19519;SDS011;9904;52.246;20.898;2023-05-23T09:02:02;10.37;;;2.70;;
19519;SDS011;9904;52.246;20.898;2023-05-23T09:04:33;7.73;;;2.70;;
19519;SDS011;9904;52.246;20.898;2023-05-23T09:07:00;9.43;;;2.30;;
19519;SDS011;9904;52.246;20.898;2023-05-23T09:09:28;8.73;;;2.50;;
19519;SDS011;9904;52.246;20.898;2023-05-23T09:11:54;7.13;;;2.60;;
19519;SDS011;9904;52.246;20.898;2023-05-23T09:14:21;6.37;;;2.90;;
19519;SDS011;9904;52.246;20.898;2023-05-23T09:16:48;5.80;;;2.50;;
19519;SDS011;9904;52.246;20.898;2023-05-23T09:19:14;3.03;;;2.13;;
19519;SDS011;9904;52.246;20.898;2023-05-23T09:21:42;7.43;;;2.70;;
19519;SDS011;9904;52.246;20.898;2023-05-23T09:24:09;6.10;;;2.77;;
19519;SDS011;9904;52.246;20.898;2023-05-23T09:26:36;5.23;;;2.20;;
19519;SDS011;9904;52.246;20.898;2023-05-23T09:29:04;10.97;;;2.60;;
19519;SDS011;9904;52.246;20.898;2023-05-23T09:31:31;5.40;;;3.13;;
19519;SDS011;9904;52.246;20.898;2023-05-23T09:33:58;3.93;;;2.13;;
19519;SDS011;9904;52.246;20.898;2023-05-23T09:36:26;5.57;;;2.50;;
19519;SDS011;9904;52.246;20.898;2023-05-23T09:39:01;5.33;;;1.90;;
19519;SDS011;9904;52.246;20.898;2023-05-23T09:41:31;10.57;;;2.50;;
19519;SDS011;9904;52.246;20.898;2023-05-23T09:43:58;6.80;;;2.20;;
19519;SDS011;9904;52.246;20.898;2023-05-23T09:46:33;5.93;;;2.47;;
19519;SDS011;9904;52.246;20.898;2023-05-23T09:49:09;4.50;;;2.20;;
19519;SDS011;9904;52.246;20.898;2023-05-23T09:51:41;9.20;;;2.63;;
19519;SDS011;9904;52.246;20.898;2023-05-23T09:54:07;5.20;;;2.17;;
19519;SDS011;9904;52.246;20.898;2023-05-23T09:56:35;7.07;;;2.47;;
19519;SDS011;9904;52.246;20.898;2023-05-23T09:59:04;6.17;;;2.20;;
19519;SDS011;9904;52.246;20.898;2023-05-23T10:01:32;4.30;;;2.20;;
19519;SDS011;9904;52.246;20.898;2023-05-23T10:03:59;4.00;;;2.13;;
19519;SDS011;9904;52.246;20.898;2023-05-23T10:06:29;6.47;;;2.63;;
19519;SDS011;9904;52.246;20.898;2023-05-23T10:09:01;3.60;;;2.07;;
19519;SDS011;9904;52.246;20.898;2023-05-23T10:11:47;6.20;;;2.30;;
19519;SDS011;9904;52.246;20.898;2023-05-23T10:14:25;3.43;;;2.10;;
19519;SDS011;9904;52.246;20.898;2023-05-23T10:16:58;5.77;;;2.47;;
19519;SDS011;9904;52.246;20.898;2023-05-23T10:19:42;5.87;;;2.30;;
19519;SDS011;9904;52.246;20.898;2023-05-23T10:22:11;9.70;;;2.47;;
19519;SDS011;9904;52.246;20.898;2023-05-23T10:24:39;6.30;;;2.23;;
19519;SDS011;9904;52.246;20.898;2023-05-23T10:27:07;4.83;;;2.20;;
19519;SDS011;9904;52.246;20.898;2023-05-23T10:29:34;10.03;;;2.27;;
19519;SDS011;9904;52.246;20.898;2023-05-23T10:32:01;4.67;;;2.20;;
19519;SDS011;9904;52.246;20.898;2023-05-23T10:37:22;6.50;;;2.20;;
19519;SDS011;9904;52.246;20.898;2023-05-23T10:40:00;4.77;;;2.00;;
19519;SDS011;9904;52.246;20.898;2023-05-23T10:42:37;10.20;;;2.28;;
19519;SDS011;9904;52.246;20.898;2023-05-23T10:45:25;4.00;;;2.20;;
19519;SDS011;9904;52.246;20.898;2023-05-23T10:47:52;5.73;;;2.40;;
19519;SDS011;9904;52.246;20.898;2023-05-23T10:50:29;7.43;;;2.70;;
19519;SDS011;9904;52.246;20.898;2023-05-23T10:52:58;5.00;;;2.27;;
19519;SDS011;9904;52.246;20.898;2023-05-23T10:55:32;8.18;;;1.98;;
19519;SDS011;9904;52.246;20.898;2023-05-23T10:58:15;4.65;;;2.13;;
19519;SDS011;9904;52.246;20.898;2023-05-23T11:00:51;3.17;;;2.20;;
19519;SDS011;9904;52.246;20.898;2023-05-23T11:03:35;5.33;;;2.00;;
19519;SDS011;9904;52.246;20.898;2023-05-23T11:06:04;8.93;;;2.37;;
19519;SDS011;9904;52.246;20.898;2023-05-23T11:08:37;5.70;;;2.00;;
19519;SDS011;9904;52.246;20.898;2023-05-23T11:11:13;5.83;;;2.43;;
19519;SDS011;9904;52.246;20.898;2023-05-23T11:13:53;3.37;;;2.30;;
19519;SDS011;9904;52.246;20.898;2023-05-23T11:21:43;6.57;;;2.30;;
19519;SDS011;9904;52.246;20.898;2023-05-23T11:24:11;8.83;;;2.40;;
19519;SDS011;9904;52.246;20.898;2023-05-23T11:26:38;5.33;;;2.40;;
19519;SDS011;9904;52.246;20.898;2023-05-23T11:29:07;7.47;;;2.70;;
19519;SDS011;9904;52.246;20.898;2023-05-23T11:31:37;4.10;;;2.20;;
19519;SDS011;9904;52.246;20.898;2023-05-23T11:34:05;4.17;;;2.07;;
19519;SDS011;9904;52.246;20.898;2023-05-23T11:36:33;6.27;;;2.17;;
19519;SDS011;9904;52.246;20.898;2023-05-23T11:39:03;5.43;;;2.38;;
19519;SDS011;9904;52.246;20.898;2023-05-23T11:41:30;4.13;;;2.13;;
19519;SDS011;9904;52.246;20.898;2023-05-23T11:43:56;4.10;;;2.30;;
19519;SDS011;9904;52.246;20.898;2023-05-23T11:46:25;6.72;;;2.67;;
19519;SDS011;9904;52.246;20.898;2023-05-23T11:48:52;7.60;;;2.80;;
19519;SDS011;9904;52.246;20.898;2023-05-23T11:51:20;7.47;;;2.55;;
19519;SDS011;9904;52.246;20.898;2023-05-23T11:53:47;4.38;;;2.40;;
19519;SDS011;9904;52.246;20.898;2023-05-23T11:56:14;8.60;;;2.37;;
19519;SDS011;9904;52.246;20.898;2023-05-23T11:58:41;7.57;;;2.80;;
19519;SDS011;9904;52.246;20.898;2023-05-23T12:01:11;5.27;;;2.20;;
19519;SDS011;9904;52.246;20.898;2023-05-23T12:03:44;6.73;;;2.30;;
19519;SDS011;9904;52.246;20.898;2023-05-23T12:06:15;4.63;;;2.33;;
19519;SDS011;9904;52.246;20.898;2023-05-23T12:08:45;3.77;;;2.37;;
19519;SDS011;9904;52.246;20.898;2023-05-23T12:11:12;5.65;;;2.35;;
19519;SDS011;9904;52.246;20.898;2023-05-23T12:13:40;9.27;;;2.63;;
19519;SDS011;9904;52.246;20.898;2023-05-23T12:16:07;8.77;;;2.45;;
19519;SDS011;9904;52.246;20.898;2023-05-23T12:18:36;7.20;;;2.30;;
19519;SDS011;9904;52.246;20.898;2023-05-23T12:21:04;8.32;;;2.60;;
19519;SDS011;9904;52.246;20.898;2023-05-23T12:23:33;6.03;;;2.60;;
19519;SDS011;9904;52.246;20.898;2023-05-23T12:26:03;5.47;;;2.67;;
19519;SDS011;9904;52.246;20.898;2023-05-23T12:28:38;7.30;;;2.53;;
19519;SDS011;9904;52.246;20.898;2023-05-23T12:31:11;4.73;;;2.30;;
19519;SDS011;9904;52.246;20.898;2023-05-23T12:33:47;5.47;;;2.53;;
19519;SDS011;9904;52.246;20.898;2023-05-23T12:36:20;3.83;;;2.30;;
19519;SDS011;9904;52.246;20.898;2023-05-23T12:38:49;7.47;;;2.50;;
19519;SDS011;9904;52.246;20.898;2023-05-23T12:41:16;8.33;;;2.50;;
19519;SDS011;9904;52.246;20.898;2023-05-23T12:43:50;4.83;;;2.40;;
19519;SDS011;9904;52.246;20.898;2023-05-23T12:46:22;4.23;;;2.60;;
19519;SDS011;9904;52.246;20.898;2023-05-23T12:48:50;3.50;;;2.33;;
19519;SDS011;9904;52.246;20.898;2023-05-23T12:51:17;3.77;;;2.17;;
19519;SDS011;9904;52.246;20.898;2023-05-23T12:53:44;8.80;;;2.70;;
19519;SDS011;9904;52.246;20.898;2023-05-23T12:56:10;8.70;;;2.67;;
19519;SDS011;9904;52.246;20.898;2023-05-23T12:58:37;6.50;;;2.27;;
19519;SDS011;9904;52.246;20.898;2023-05-23T13:01:04;3.58;;;2.53;;
19519;SDS011;9904;52.246;20.898;2023-05-23T13:03:30;6.97;;;3.03;;
19519;SDS011;9904;52.246;20.898;2023-05-23T13:05:57;5.03;;;2.77;;
19519;SDS011;9904;52.246;20.898;2023-05-23T13:08:25;5.23;;;2.67;;
19519;SDS011;9904;52.246;20.898;2023-05-23T13:10:52;9.65;;;2.28;;
19519;SDS011;9904;52.246;20.898;2023-05-23T13:13:19;9.00;;;2.60;;
19519;SDS011;9904;52.246;20.898;2023-05-23T13:15:46;5.07;;;2.60;;
19519;SDS011;9904;52.246;20.898;2023-05-23T13:18:15;5.43;;;2.67;;
19519;SDS011;9904;52.246;20.898;2023-05-23T13:20:42;8.23;;;3.17;;
19519;SDS011;9904;52.246;20.898;2023-05-23T13:23:09;5.35;;;2.55;;
19519;SDS011;9904;52.246;20.898;2023-05-23T13:25:36;10.83;;;2.90;;
19519;SDS011;9904;52.246;20.898;2023-05-23T13:28:02;4.75;;;2.95;;
19519;SDS011;9904;52.246;20.898;2023-05-23T13:30:30;6.07;;;2.80;;
19519;SDS011;9904;52.246;20.898;2023-05-23T13:32:56;8.05;;;2.83;;
19519;SDS011;9904;52.246;20.898;2023-05-23T13:35:23;9.73;;;2.83;;
19519;SDS011;9904;52.246;20.898;2023-05-23T13:37:49;13.27;;;3.13;;
19519;SDS011;9904;52.246;20.898;2023-05-23T13:40:17;6.20;;;2.80;;
19519;SDS011;9904;52.246;20.898;2023-05-23T13:42:46;4.50;;;2.60;;
19519;SDS011;9904;52.246;20.898;2023-05-23T13:45:13;5.72;;;2.60;;
19519;SDS011;9904;52.246;20.898;2023-05-23T13:47:40;7.75;;;2.85;;
19519;SDS011;9904;52.246;20.898;2023-05-23T13:50:07;4.78;;;2.25;;
19519;SDS011;9904;52.246;20.898;2023-05-23T13:52:34;6.75;;;2.67;;
19519;SDS011;9904;52.246;20.898;2023-05-23T13:55:08;4.40;;;2.80;;
19519;SDS011;9904;52.246;20.898;2023-05-23T13:57:35;6.27;;;2.70;;
19519;SDS011;9904;52.246;20.898;2023-05-23T14:00:02;4.82;;;2.45;;
19519;SDS011;9904;52.246;20.898;2023-05-23T14:02:29;9.65;;;3.20;;
19519;SDS011;9904;52.246;20.898;2023-05-23T14:04:57;6.22;;;2.47;;
19519;SDS011;9904;52.246;20.898;2023-05-23T14:07:24;6.07;;;2.80;;
19519;SDS011;9904;52.246;20.898;2023-05-23T14:09:50;4.72;;;2.80;;
19519;SDS011;9904;52.246;20.898;2023-05-23T14:12:17;8.02;;;2.97;;
19519;SDS011;9904;52.246;20.898;2023-05-23T14:14:43;7.90;;;2.90;;
19519;SDS011;9904;52.246;20.898;2023-05-23T14:17:16;7.47;;;3.00;;
19519;SDS011;9904;52.246;20.898;2023-05-23T14:19:43;3.78;;;2.50;;
19519;SDS011;9904;52.246;20.898;2023-05-23T14:22:10;13.27;;;3.28;;
19519;SDS011;9904;52.246;20.898;2023-05-23T14:24:37;8.38;;;2.90;;
19519;SDS011;9904;52.246;20.898;2023-05-23T14:27:04;3.93;;;2.47;;
19519;SDS011;9904;52.246;20.898;2023-05-23T14:29:34;5.97;;;3.30;;
19519;SDS011;9904;52.246;20.898;2023-05-23T14:32:01;7.00;;;2.63;;
19519;SDS011;9904;52.246;20.898;2023-05-23T14:34:29;6.22;;;2.90;;
19519;SDS011;9904;52.246;20.898;2023-05-23T14:36:55;3.63;;;2.67;;
19519;SDS011;9904;52.246;20.898;2023-05-23T14:39:22;8.35;;;2.92;;
19519;SDS011;9904;52.246;20.898;2023-05-23T14:41:50;5.60;;;2.80;;
19519;SDS011;9904;52.246;20.898;2023-05-23T14:44:17;10.55;;;3.00;;
19519;SDS011;9904;52.246;20.898;2023-05-23T14:46:43;5.85;;;2.90;;
19519;SDS011;9904;52.246;20.898;2023-05-23T14:49:16;4.22;;;3.03;;
19519;SDS011;9904;52.246;20.898;2023-05-23T14:51:43;9.10;;;2.90;;
19519;SDS011;9904;52.246;20.898;2023-05-23T14:54:17;4.32;;;2.53;;
19519;SDS011;9904;52.246;20.898;2023-05-23T14:56:43;12.27;;;3.67;;
19519;SDS011;9904;52.246;20.898;2023-05-23T14:59:10;5.93;;;2.90;;
19519;SDS011;9904;52.246;20.898;2023-05-23T15:01:37;12.30;;;3.53;;
19519;SDS011;9904;52.246;20.898;2023-05-23T15:04:06;8.20;;;3.35;;
19519;SDS011;9904;52.246;20.898;2023-05-23T15:06:35;5.67;;;2.87;;